Johnsons Bayou, Louisiana
Current Conditions -  °F | °C
As of 8:15 PM on Thursday 18 Dec 2014 (Local Time) from KORG Reporting Station
Overcast Overcast  
Wind Chill: 57°   Ceiling: 800
Heat Index: 57°   Visibility: 10mi
Dew Point: 55°   Wind: 3mph
Humidity: 91%   Direction: 40°NE
Pressure: 30.12"   Gusts: NA
Location:  29.8391°N, 93.6411°W
Report Text: KORG 190215Z AUTO 04003KT 10SM BKN008 OVC015 14/13 A3012 RMK AO2 LTG DSNT S T01410126
Loading
Personal Weather Stations






























Interactive Weather Map New forecast layout! Learn more

10-Day Weather Forecast

Advertisements
Track Severe Weather on mobile